Terminal Aerodrome Forecast
Issued by NWS

Home | Current Version | Previous Version | Text Only | Print | Product List | Glossary On
Versions: 1 2 3 4 5 6 7 8 9 10 11 12 13 14 15 16 17 18 19 20 21 22 23
448
FTUS44 KOHX 271124
TAFCKV
TAF
KCKV 271124Z 2712/2812 16008KT P6SM -SHRA OVC050
     FM271400 18010KT P6SM BKN040
     FM280000 16008KT P6SM OVC030
      TEMPO 2808/2812 5SM -SHRA BR OVC015=

USA.gov is the U.S. government's official web portal to all federal, state and local government web resources and services.